Time;durP1;ratioP1;P1;durP2;ratioP2;P2;SDS_P1;SDS_P2;PMS_P1;PMS_P2;Temp;Humidity;BMP_temperature;BMP_pressure;BME280_temperature;BME280_humidity;BME280_pressure;Samples;Min_cycle;Max_cycle;Signal;HPM_P1;HPM_P2
2022/07/31 00:04:30;;;;;;;6.90;1.83;;;;;;;15.99;88.95;98078.03;18501204;32;20061;-62
2022/07/31 00:14:33;;;;;;;2.33;1.70;;;;;;;15.89;89.25;98074.34;18501567;32;20079;-62
2022/07/31 00:24:35;;;;;;;4.97;1.70;;;;;;;15.82;89.40;98070.38;18499504;32;20058;-62
2022/07/31 00:34:38;;;;;;;2.60;1.62;;;;;;;15.69;90.78;98059.06;18485907;32;20107;-62
2022/07/31 00:44:40;;;;;;;2.35;1.42;;;;;;;15.59;90.19;98051.00;18499615;32;20079;-62
2022/07/31 00:54:42;;;;;;;2.42;1.30;;;;;;;15.55;90.36;98056.25;18497543;32;20413;-62
2022/07/31 01:04:44;;;;;;;1.50;1.40;;;;;;;15.53;90.10;98044.03;18484273;32;20089;-61
2022/07/31 01:14:53;;;;;;;2.00;1.60;;;;;;;15.59;91.03;98060.03;18498332;32;20100;-62
2022/07/31 01:25:17;;;;;;;2.22;1.45;;;;;;;15.68;91.46;98045.72;18483381;32;20057;-61
2022/07/31 01:35:22;;;;;;;2.80;1.70;;;;;;;15.63;92.09;98046.59;18482624;32;20080;-62
2022/07/31 01:45:26;;;;;;;1.83;1.55;;;;;;;15.54;92.85;98042.91;18496372;32;20452;-62
2022/07/31 01:55:30;;;;;;;1.48;1.33;;;;;;;15.47;92.13;98043.28;18495083;32;20322;-61
2022/07/31 02:05:54;;;;;;;2.08;1.58;;;;;;;15.49;91.89;98041.06;18495870;32;20100;-61
2022/07/31 02:15:58;;;;;;;1.63;1.50;;;;;;;15.45;92.39;98042.75;18495099;32;20065;-62
2022/07/31 02:26:02;;;;;;;1.85;1.33;;;;;;;15.33;92.93;98047.81;18495079;32;20116;-61
2022/07/31 02:36:05;;;;;;;1.70;1.40;;;;;;;15.22;93.60;98047.97;18480428;32;20097;-62
2022/07/31 02:46:09;;;;;;;3.53;1.50;;;;;;;15.07;93.45;98053.56;18467471;32;20145;-62
2022/07/31 02:56:12;;;;;;;2.60;1.53;;;;;;;15.02;93.80;98059.06;18493571;32;20095;-61
2022/07/31 03:06:15;;;;;;;3.12;1.60;;;;;;;15.09;93.94;98048.66;18503583;32;20366;-62
2022/07/31 03:16:17;;;;;;;3.12;1.60;;;;;;;15.25;94.02;98052.81;18503936;32;20057;-61
2022/07/31 03:26:20;;;;;;;2.45;2.12;;;;;;;15.39;94.29;98049.37;18490564;32;20473;-62
2022/07/31 03:36:23;;;;;;;2.17;1.60;;;;;;;15.46;94.24;98049.84;18502646;32;20076;-62
2022/07/31 03:46:25;;;;;;;1.77;1.52;;;;;;;15.48;94.47;98044.88;18503286;32;20430;-61
2022/07/31 03:56:28;;;;;;;2.03;1.62;;;;;;;15.48;94.91;98044.88;18502424;32;20513;-62
2022/07/31 04:06:30;;;;;;;2.65;1.52;;;;;;;15.32;94.27;98035.28;18501973;32;20478;-62
2022/07/31 04:16:32;;;;;;;1.30;1.20;;;;;;;15.24;94.42;98040.28;18487025;32;20091;-62
2022/07/31 04:26:35;;;;;;;4.18;1.90;;;;;;;15.20;95.33;98035.72;18500968;32;20113;-61
2022/07/31 04:36:38;;;;;;;3.05;1.85;;;;;;;15.11;95.42;98051.88;18500183;32;20079;-62
2022/07/31 04:46:42;;;;;;;3.78;1.85;;;;;;;15.06;95.04;98051.94;18499441;32;20056;-61
2022/07/31 04:56:47;;;;;;;;;;;;;;;15.12;94.99;98050.00;18499130;32;20049;-62
2022/07/31 05:06:51;;;;;;;1.60;1.50;;;;;;;15.14;95.52;98048.56;18484409;32;20004;-61
2022/07/31 05:16:53;;;;;;;4.93;2.00;;;;;;;15.41;94.71;98064.31;18497921;32;20357;-61
2022/07/31 05:26:56;;;;;;;2.65;1.70;;;;;;;15.71;93.60;98061.50;18482429;32;20049;-62
2022/07/31 05:37:02;;;;;;;1.85;1.62;;;;;;;15.96;92.79;98067.72;18496790;32;20496;-62
2022/07/31 05:47:06;;;;;;;1.85;1.73;;;;;;;16.28;92.49;98058.75;18482682;32;20056;-62
2022/07/31 05:57:09;;;;;;;3.05;2.00;;;;;;;16.59;90.72;98066.41;18495550;32;20368;-62
2022/07/31 06:07:11;;;;;;;2.20;1.58;;;;;;;16.63;91.29;98064.72;18495943;32;20091;-62
2022/07/31 06:17:14;;;;;;;1.83;1.70;;;;;;;17.12;89.03;98065.22;18481377;32;20441;-62
2022/07/31 06:27:16;;;;;;;1.77;1.55;;;;;;;17.73;86.31;98067.78;18495091;32;20068;-62
2022/07/31 06:37:35;;;;;;;4.87;1.80;;;;;;;18.36;83.37;98077.00;18501841;32;20102;-62
2022/07/31 06:47:37;;;;;;;1.95;1.75;;;;;;;18.96;76.90;98075.00;18506595;32;20391;-62
2022/07/31 06:57:40;;;;;;;1.83;1.48;;;;;;;19.66;75.86;98071.66;18505836;32;20056;-62
2022/07/31 07:07:43;;;;;;;1.90;1.67;;;;;;;20.19;73.07;98083.53;18491498;32;20095;-62
2022/07/31 07:17:46;;;;;;;1.90;1.50;;;;;;;20.73;69.09;98088.66;18490546;32;20449;-62
2022/07/31 07:27:48;;;;;;;1.50;1.40;;;;;;;21.21;67.68;98090.25;18504525;32;20179;-62
2022/07/31 07:37:52;;;;;;;2.78;1.50;;;;;;;21.76;66.48;98074.81;18503756;32;20069;-62
2022/07/31 07:47:54;;;;;;;;;;;;;;;22.40;63.36;98075.59;18489271;32;20057;-62
2022/07/31 07:58:08;;;;;;;2.53;1.73;;;;;;;23.06;62.36;98062.91;18502807;32;19994;-62
2022/07/31 08:08:13;;;;;;;2.87;1.58;;;;;;;23.69;58.73;98068.13;18501827;32;20057;-62
2022/07/31 08:18:16;;;;;;;2.10;1.60;;;;;;;24.25;56.72;98069.38;18501451;32;20064;-62
2022/07/31 08:28:19;;;;;;;1.92;1.50;;;;;;;24.72;51.60;98067.13;18499605;32;20118;-62
2022/07/31 08:38:25;;;;;;;1.70;1.50;;;;;;;25.18;52.22;98073.03;18485661;32;20057;-62
2022/07/31 08:48:31;;;;;;;2.60;1.92;;;;;;;25.53;49.60;98064.81;18484822;32;20064;-61
2022/07/31 08:58:34;;;;;;;1.52;1.42;;;;;;;25.99;49.31;98055.94;18483936;32;20098;-62
2022/07/31 09:08:41;;;;;;;2.05;1.55;;;;;;;26.48;48.56;98070.41;18497148;32;20075;-62
2022/07/31 09:19:01;;;;;;;1.60;1.40;;;;;;;26.94;48.07;98062.16;18497601;32;20101;-62
2022/07/31 09:29:39;;;;;;;2.10;1.60;;;;;;;27.29;47.05;98065.94;18485467;32;20088;-62
2022/07/31 09:39:50;;;;;;;2.83;1.70;;;;;;;27.55;46.25;98062.38;18496833;32;20052;-62
2022/07/31 09:49:57;;;;;;;2.22;1.70;;;;;;;27.94;45.20;98064.13;18482826;32;20075;-62
2022/07/31 09:59:59;;;;;;;2.92;1.55;;;;;;;28.38;42.30;98049.59;18495590;32;20084;-61
2022/07/31 10:10:06;;;;;;;3.45;1.60;;;;;;;29.21;38.76;98067.94;18499400;32;20057;-62
2022/07/31 10:20:16;;;;;;;1.60;1.35;;;;;;;29.57;38.41;98061.88;18507585;32;20132;-62
2022/07/31 10:30:19;;;;;;;2.65;1.42;;;;;;;30.76;36.26;98054.06;18508559;32;20053;-61
2022/07/31 10:40:39;;;;;;;1.83;1.23;;;;;;;30.43;37.10;98056.72;18507394;32;20053;-62
2022/07/31 10:50:46;;;;;;;2.08;1.48;;;;;;;30.42;37.34;98032.03;18507072;32;20053;-62
2022/07/31 11:00:51;;;;;;;4.68;1.23;;;;;;;31.05;36.80;98024.22;18505812;32;20049;-62
2022/07/31 11:10:55;;;;;;;3.17;1.25;;;;;;;31.52;38.42;98017.75;18479011;32;20060;-62
2022/07/31 11:21:00;;;;;;;1.85;1.20;;;;;;;31.59;36.11;98015.00;18504394;32;20479;-62
2022/07/31 11:31:28;;;;;;;1.95;1.27;;;;;;;31.31;33.90;98001.84;18504644;32;20061;-62
2022/07/31 11:41:32;;;;;;;2.55;1.40;;;;;;;30.95;36.84;97996.25;18489589;32;20069;-62
2022/07/31 11:51:46;;;;;;;1.98;1.50;;;;;;;31.15;33.03;97982.69;18503220;32;20072;-62
2022/07/31 12:01:49;;;;;;;2.28;1.30;;;;;;;31.42;37.05;97989.47;18502261;32;20556;-62
2022/07/31 12:11:52;;;;;;;1.62;1.42;;;;;;;31.68;35.82;97970.62;18501516;32;20041;-62
2022/07/31 12:21:57;;;;;;;1.65;1.17;;;;;;;32.26;34.57;97960.03;18501427;32;20061;-62
2022/07/31 12:32:07;;;;;;;1.87;1.20;;;;;;;32.03;34.58;97963.31;18500648;32;20105;-62
2022/07/31 12:42:20;;;;;;;1.98;1.30;;;;;;;32.32;32.96;97962.41;18485808;32;20107;-62
2022/07/31 12:52:33;;;;;;;3.05;1.33;;;;;;;32.91;36.15;97951.16;18499205;32;20106;-62
2022/07/31 13:02:36;;;;;;;2.47;1.60;;;;;;;32.63;32.80;97935.41;18498278;32;20092;-62
2022/07/31 13:12:39;;;;;;;2.37;1.40;;;;;;;33.29;33.58;97928.03;18498215;32;20104;-62
2022/07/31 13:22:42;;;;;;;5.30;1.40;;;;;;;33.78;32.38;97919.47;18497557;32;20115;-62
2022/07/31 13:32:45;;;;;;;2.58;1.37;;;;;;;34.41;31.28;97913.41;18483448;32;20064;-62
2022/07/31 13:42:48;;;;;;;2.53;1.12;;;;;;;34.36;28.31;97897.03;18496123;32;20120;-62
2022/07/31 13:52:51;;;;;;;2.17;1.35;;;;;;;34.65;31.67;97890.97;18482174;32;20064;-62
2022/07/31 14:02:54;;;;;;;1.87;1.33;;;;;;;33.70;30.15;97887.09;18495607;32;20049;-62
2022/07/31 14:12:58;;;;;;;2.70;1.15;;;;;;;33.98;32.98;97874.72;18495501;32;20053;-61
2022/07/31 14:23:02;;;;;;;2.55;1.30;;;;;;;34.28;27.48;97873.09;18495040;32;20077;-62
2022/07/31 14:33:06;;;;;;;1.65;1.30;;;;;;;34.38;32.96;97860.13;18494947;32;20116;-62
2022/07/31 14:43:10;;;;;;;1.70;1.33;;;;;;;35.19;27.88;97866.75;18494730;32;20172;-62
2022/07/31 14:53:14;;;;;;;2.72;1.33;;;;;;;35.61;31.87;97841.81;18480033;32;20053;-62
2022/07/31 15:03:16;;;;;;;2.37;1.40;;;;;;;35.61;30.22;97842.59;18506064;32;20121;-62
2022/07/31 15:13:19;;;;;;;2.22;1.30;;;;;;;34.90;28.96;97833.56;18505716;32;20401;-62
2022/07/31 15:23:23;;;;;;;2.80;1.30;;;;;;;33.40;32.67;97819.41;18505080;32;20083;-61
2022/07/31 15:33:38;;;;;;;1.95;1.45;;;;;;;32.45;34.21;97809.56;18504784;32;20073;-61
2022/07/31 15:43:42;;;;;;;2.25;1.50;;;;;;;32.02;33.94;97810.69;18489428;32;20057;-61
2022/07/31 15:53:44;;;;;;;1.73;1.20;;;;;;;32.05;33.05;97798.66;18503780;32;20101;-61
2022/07/31 16:03:47;;;;;;;1.73;1.40;;;;;;;31.56;31.58;97790.19;18502473;32;20377;-61
2022/07/31 16:13:55;;;;;;;1.77;1.25;;;;;;;30.89;34.92;97783.66;18488212;32;20110;-61
2022/07/31 16:23:58;;;;;;;1.50;1.20;;;;;;;30.47;37.16;97771.41;18487212;32;20409;-61
2022/07/31 16:34:01;;;;;;;2.35;1.40;;;;;;;30.43;35.81;97765.81;18486459;32;20049;-62
2022/07/31 16:44:05;;;;;;;1.75;1.12;;;;;;;30.64;36.70;97758.63;18499892;32;20422;-61
2022/07/31 16:54:08;;;;;;;1.35;1.25;;;;;;;30.53;38.17;97759.44;18485265;32;20049;-61
2022/07/31 17:04:17;;;;;;;3.20;1.50;;;;;;;30.43;37.35;97749.84;18370565;32;20086;-61
2022/07/31 17:14:24;;;;;;;1.75;1.37;;;;;;;29.46;40.05;97749.78;18369648;32;20073;-61
2022/07/31 17:24:26;;;;;;;1.62;1.40;;;;;;;28.88;39.32;97749.56;18369075;32;20083;-61
2022/07/31 17:34:29;;;;;;;2.47;1.60;;;;;;;28.39;40.72;97739.72;18368704;32;20340;-61
2022/07/31 17:44:31;;;;;;;2.28;1.50;;;;;;;27.97;41.88;97747.34;18368050;32;20037;-61
2022/07/31 17:54:35;;;;;;;1.30;1.20;;;;;;;27.69;42.25;97759.00;18357559;32;20049;-62
2022/07/31 18:04:39;;;;;;;1.30;1.17;;;;;;;27.27;42.68;97755.38;18495736;32;20488;-62
2022/07/31 18:14:42;;;;;;;1.35;1.23;;;;;;;26.92;43.72;97756.53;18495247;32;20378;-61
2022/07/31 18:24:47;;;;;;;3.28;1.30;;;;;;;26.43;46.98;97760.19;18480857;32;20061;-62
2022/07/31 18:34:51;;;;;;;1.60;1.30;;;;;;;25.84;49.78;97763.19;18503507;32;20052;-61
2022/07/31 18:44:55;;;;;;;1.35;1.12;;;;;;;25.30;51.63;97760.19;18507405;32;20093;-61
2022/07/31 18:54:59;;;;;;;4.75;2.70;;;;;;;24.78;53.74;97764.28;18506472;32;20100;-62
2022/07/31 19:05:03;;;;;;;5.10;2.47;;;;;;;24.30;55.92;97770.69;18506321;32;20075;-61
2022/07/31 19:15:16;;;;;;;3.30;1.60;;;;;;;23.84;57.59;97773.91;18492214;32;20053;-62
2022/07/31 19:25:19;;;;;;;7.75;5.20;;;;;;;23.39;59.03;97777.03;18503781;32;20045;-62
2022/07/31 19:35:23;;;;;;;5.37;4.20;;;;;;;22.95;60.36;97778.53;18490133;32;20060;-62
2022/07/31 19:45:26;;;;;;;3.55;2.42;;;;;;;22.54;62.12;97787.94;18503021;32;20094;-62
2022/07/31 19:55:29;;;;;;;2.55;1.95;;;;;;;22.14;63.39;97790.19;18489131;32;20464;-62
2022/07/31 20:05:38;;;;;;;2.95;2.35;;;;;;;21.77;64.57;97798.41;18502649;32;20048;-61
2022/07/31 20:15:43;;;;;;;4.37;2.47;;;;;;;21.44;65.58;97803.91;18501945;32;20139;-62
2022/07/31 20:25:53;;;;;;;5.05;2.50;;;;;;;21.13;66.62;97811.47;18501304;32;20064;-62
2022/07/31 20:35:56;;;;;;;4.33;3.60;;;;;;;20.85;67.46;97808.44;18486291;32;20061;-62
2022/07/31 20:45:59;;;;;;;2.90;2.43;;;;;;;20.59;68.41;97808.59;18500134;32;20087;-62
2022/07/31 20:56:04;;;;;;;3.20;2.65;;;;;;;20.34;69.07;97816.66;18498989;32;20061;-62
2022/07/31 21:06:07;;;;;;;2.85;2.10;;;;;;;20.19;69.39;97818.03;18498883;32;20475;-62
2022/07/31 21:16:10;;;;;;;1.70;1.60;;;;;;;20.03;69.81;97816.97;18498077;32;20057;-62
2022/07/31 21:26:15;;;;;;;2.83;1.80;;;;;;;19.89;69.62;97820.72;18497483;32;20057;-62
2022/07/31 21:36:19;;;;;;;2.75;1.90;;;;;;;19.76;70.05;97822.50;18482936;32;20585;-62
2022/07/31 21:46:23;;;;;;;1.95;1.65;;;;;;;19.71;70.96;97847.34;18495432;32;20390;-62
2022/07/31 21:56:26;;;;;;;2.35;1.87;;;;;;;19.87;69.72;97872.38;18496577;32;20049;-62
2022/07/31 22:16:51;;;;;;;2.97;1.52;;;;;;;19.44;72.67;97876.75;18481264;32;20420;-62
2022/07/31 22:37:18;;;;;;;;;;;;;;;19.07;73.36;97886.41;18495315;32;20191;-61
2022/07/31 22:47:21;;;;;;;2.33;1.70;;;;;;;18.85;74.19;97887.31;18480862;32;19971;-61
2022/07/31 22:57:23;;;;;;;2.53;1.90;;;;;;;18.57;74.49;97893.84;18494073;32;20432;-61
2022/07/31 23:07:26;;;;;;;2.60;2.00;;;;;;;18.35;76.04;97896.66;18493784;32;20353;-61
2022/07/31 23:17:28;;;;;;;2.50;2.00;;;;;;;18.23;76.98;97895.31;18482485;32;20045;-61
2022/07/31 23:27:31;;;;;;;3.15;2.22;;;;;;;18.05;77.46;97907.31;18504931;32;20053;-61
2022/07/31 23:37:34;;;;;;;4.20;2.20;;;;;;;17.86;78.49;97907.50;18504280;32;20459;-61
2022/07/31 23:47:36;;;;;;;2.10;1.90;;;;;;;17.73;79.03;97909.16;18504335;32;20468;-61
2022/07/31 23:57:47;;;;;;;3.40;2.60;;;;;;;17.59;79.16;97903.75;18503127;32;20093;-61
